createdAt,value
2022-10-18T00:00:21.120Z,1009.55
2022-10-18T00:05:21.101Z,1009.53
2022-10-18T00:10:21.001Z,1009.56
2022-10-18T00:15:20.980Z,1009.62
2022-10-18T00:20:20.923Z,1009.56
2022-10-18T00:25:21.040Z,1009.56
2022-10-18T00:30:20.843Z,1009.46
2022-10-18T00:35:20.766Z,1009.47
2022-10-18T00:40:20.717Z,1009.43
2022-10-18T00:45:20.652Z,1009.28
2022-10-18T00:50:20.591Z,1009.38
2022-10-18T00:55:20.534Z,1009.33
2022-10-18T01:00:20.472Z,1009.29
2022-10-18T01:05:20.435Z,1009.16
2022-10-18T01:10:20.372Z,1009.20
2022-10-18T01:15:20.323Z,1009.18
2022-10-18T01:20:20.321Z,1009.10
2022-10-18T01:25:20.275Z,1009.11
2022-10-18T01:30:20.149Z,1009.09
2022-10-18T01:35:20.132Z,1009.11
2022-10-18T01:40:20.117Z,1009.05
2022-10-18T01:45:19.992Z,1009.00
2022-10-18T01:50:19.933Z,1009.00
2022-10-18T01:55:19.882Z,1009.03
2022-10-18T02:00:19.947Z,1009.04
2022-10-18T02:05:19.892Z,1009.07
2022-10-18T02:10:19.850Z,1009.07
2022-10-18T02:15:19.753Z,1009.04
2022-10-18T02:20:19.697Z,1009.03
2022-10-18T02:25:19.658Z,1009.03
2022-10-18T02:30:19.523Z,1009.05
2022-10-18T02:35:19.452Z,1009.03
2022-10-18T02:40:19.414Z,1009.00
2022-10-18T02:45:19.364Z,1008.95
2022-10-18T02:50:19.329Z,1008.96
2022-10-18T02:55:19.384Z,1008.96
2022-10-18T03:00:19.238Z,1008.99
2022-10-18T03:05:19.322Z,1009.01
2022-10-18T03:10:20.029Z,1009.06
2022-10-18T03:15:19.045Z,1009.09
2022-10-18T03:20:18.974Z,1009.12
2022-10-18T03:25:18.933Z,1009.08
2022-10-18T03:30:18.866Z,1009.17
2022-10-18T03:35:18.843Z,1009.14
2022-10-18T03:40:18.869Z,1009.15
2022-10-18T03:45:18.783Z,1009.16
2022-10-18T03:50:18.720Z,1009.17
2022-10-18T03:55:18.663Z,1009.13
2022-10-18T04:00:18.569Z,1009.04
2022-10-18T04:05:18.499Z,1009.04
2022-10-18T04:10:18.441Z,1008.99
2022-10-18T04:15:18.395Z,1009.04
2022-10-18T04:20:18.347Z,1009.08
2022-10-18T04:25:18.333Z,1009.08
2022-10-18T04:30:18.335Z,1009.12
2022-10-18T04:35:18.400Z,1009.05
2022-10-18T04:40:18.334Z,1009.13
2022-10-18T04:45:18.171Z,1009.12
2022-10-18T04:50:18.012Z,1009.14
2022-10-18T04:55:17.975Z,1009.16
2022-10-18T05:00:17.915Z,1009.13
2022-10-18T05:05:17.874Z,1009.13
2022-10-18T05:10:17.816Z,1009.17
2022-10-18T05:15:17.902Z,1009.12
2022-10-18T05:20:17.692Z,1009.04
2022-10-18T05:25:17.784Z,1009.16
2022-10-18T05:30:17.581Z,1009.14
2022-10-18T05:35:17.666Z,1009.14
2022-10-18T05:40:22.082Z,1009.16
2022-10-18T05:45:17.512Z,1009.20
2022-10-18T05:50:17.498Z,1009.21
2022-10-18T05:55:17.533Z,1009.29
2022-10-18T06:00:17.274Z,1009.42
2022-10-18T06:05:17.214Z,1009.40
2022-10-18T06:10:17.155Z,1009.49
2022-10-18T06:15:17.093Z,1009.45
2022-10-18T06:20:17.115Z,1009.41
2022-10-18T06:25:16.981Z,1009.46
2022-10-18T06:30:16.945Z,1009.53
2022-10-18T06:35:17.036Z,1009.59
2022-10-18T06:40:16.974Z,1009.61
2022-10-18T06:45:17.915Z,1009.61
2022-10-18T06:50:16.863Z,1009.69
2022-10-18T06:55:16.666Z,1009.71
2022-10-18T07:00:16.735Z,1009.87
2022-10-18T07:05:16.556Z,1009.87
2022-10-18T07:10:16.490Z,1009.87
2022-10-18T07:15:16.636Z,1009.94
2022-10-18T07:20:16.614Z,1009.98
2022-10-18T07:25:17.454Z,1010.08
2022-10-18T07:30:16.355Z,1010.03
2022-10-18T07:35:16.230Z,1010.01
2022-10-18T07:40:16.172Z,1010.13
2022-10-18T07:45:16.119Z,1010.17
2022-10-18T07:50:16.082Z,1010.22
2022-10-18T07:55:16.065Z,1010.32
2022-10-18T08:00:16.100Z,1010.31
2022-10-18T08:05:16.960Z,1010.39
2022-10-18T08:10:15.801Z,1010.46
2022-10-18T08:15:15.945Z,1010.52
2022-10-18T08:20:29.882Z,1010.53
2022-10-18T08:25:16.686Z,1010.58
2022-10-18T08:30:15.614Z,1010.68
2022-10-18T08:35:15.684Z,1010.74
2022-10-18T08:40:15.741Z,1010.80
2022-10-18T08:45:30.109Z,1010.87
2022-10-18T08:50:16.551Z,1010.87
2022-10-18T08:55:15.379Z,1010.94
2022-10-18T09:00:15.329Z,1011.00
2022-10-18T09:05:15.245Z,1011.00
2022-10-18T09:10:15.255Z,1010.95
2022-10-18T09:15:15.192Z,1010.91
2022-10-18T09:20:15.193Z,1010.96
2022-10-18T09:25:15.037Z,1011.05
2022-10-18T09:30:15.124Z,1011.00
2022-10-18T09:35:14.915Z,1011.04
2022-10-18T09:40:18.050Z,1011.07
2022-10-18T09:45:14.854Z,1011.15
2022-10-18T09:50:14.753Z,1011.27
2022-10-18T09:55:14.718Z,1011.19
2022-10-18T10:00:14.817Z,1011.23
2022-10-18T10:05:15.622Z,1011.20
2022-10-18T10:10:14.655Z,1011.12
2022-10-18T10:15:14.475Z,1011.18
2022-10-18T10:20:14.557Z,1011.21
2022-10-18T10:25:14.390Z,1011.23
2022-10-18T10:30:14.420Z,1011.13
2022-10-18T10:35:22.804Z,1011.23
2022-10-18T10:40:19.850Z,1011.25
2022-10-18T10:45:15.159Z,1011.20
2022-10-18T10:50:14.262Z,1011.30
2022-10-18T10:55:34.197Z,1011.25
2022-10-18T11:00:14.988Z,1011.24
2022-10-18T11:05:13.987Z,1011.19
2022-10-18T11:10:14.035Z,1011.13
2022-10-18T11:15:13.843Z,1011.13
2022-10-18T11:20:13.769Z,1011.11
2022-10-18T11:25:13.839Z,1010.97
2022-10-18T11:30:14.714Z,1011.00
2022-10-18T11:35:13.702Z,1011.03
2022-10-18T11:40:13.646Z,1011.11
2022-10-18T11:45:13.494Z,1011.08
2022-10-18T11:50:13.461Z,1011.20
2022-10-18T11:55:13.399Z,1010.98
2022-10-18T12:00:13.462Z,1011.01
2022-10-18T12:05:28.728Z,1010.85
2022-10-18T12:10:16.465Z,1010.99
2022-10-18T12:15:14.169Z,1010.85
2022-10-18T12:20:13.145Z,1010.82
2022-10-18T12:25:13.209Z,1010.72
2022-10-18T12:30:13.032Z,1010.77
2022-10-18T12:35:12.974Z,1010.68
2022-10-18T12:40:15.666Z,1010.75
2022-10-18T12:45:13.897Z,1010.87
2022-10-18T12:50:12.858Z,1010.80
2022-10-18T12:55:17.636Z,1010.93
2022-10-18T13:00:13.843Z,1010.89
2022-10-18T13:05:22.298Z,1010.94
2022-10-18T13:10:13.695Z,1010.85
2022-10-18T13:15:25.371Z,1010.92
2022-10-18T13:20:25.564Z,1010.84
2022-10-18T13:25:13.424Z,1010.94
2022-10-18T13:30:12.537Z,1010.86
2022-10-18T13:35:12.314Z,1010.83
2022-10-18T13:40:12.466Z,1010.84
2022-10-18T13:45:12.204Z,1010.94
2022-10-18T13:50:12.327Z,1010.93
2022-10-18T13:55:13.262Z,1010.99
2022-10-18T14:00:12.050Z,1010.96
2022-10-18T14:05:24.536Z,1011.02
2022-10-18T14:10:13.092Z,1011.01
2022-10-18T14:15:11.934Z,1010.99
2022-10-18T14:20:11.833Z,1010.99
2022-10-18T14:25:11.887Z,1011.00
2022-10-18T14:30:11.787Z,1011.06
2022-10-18T14:35:31.573Z,1011.00
2022-10-18T14:40:12.620Z,1011.04
2022-10-18T14:50:11.507Z,1011.06
2022-10-18T14:55:12.525Z,1011.10
2022-10-18T15:00:11.576Z,1011.13
2022-10-18T15:05:11.490Z,1011.13
2022-10-18T15:10:11.303Z,1011.20
2022-10-18T15:15:11.384Z,1011.22
2022-10-18T15:20:11.191Z,1011.19
2022-10-18T15:25:11.099Z,1011.25
2022-10-18T15:30:11.058Z,1011.23
2022-10-18T15:35:11.019Z,1011.28
2022-10-18T15:40:12.100Z,1011.34
2022-10-18T15:45:10.956Z,1011.37
2022-10-18T15:50:10.935Z,1011.37
2022-10-18T15:55:10.930Z,1011.41
2022-10-18T16:00:10.754Z,1011.35
2022-10-18T16:05:10.690Z,1011.46
2022-10-18T16:10:11.865Z,1011.46
2022-10-18T16:15:10.739Z,1011.48
2022-10-18T16:20:10.585Z,1011.51
2022-10-18T16:25:10.631Z,1011.46
2022-10-18T16:30:10.773Z,1011.49
2022-10-18T16:35:10.395Z,1011.53
2022-10-18T16:40:10.374Z,1011.59
2022-10-18T16:45:10.257Z,1011.61
2022-10-18T16:50:10.221Z,1011.65
2022-10-18T16:55:10.137Z,1011.74
2022-10-18T17:00:10.065Z,1011.69
2022-10-18T17:05:10.058Z,1011.79
2022-10-18T17:10:10.078Z,1011.84
2022-10-18T17:15:09.914Z,1011.96
2022-10-18T17:20:09.956Z,1012.08
2022-10-18T17:25:09.911Z,1012.09
2022-10-18T17:30:09.744Z,1012.17
2022-10-18T17:35:09.885Z,1012.22
2022-10-18T17:40:09.657Z,1012.20
2022-10-18T17:45:09.766Z,1012.32
2022-10-18T17:50:09.553Z,1012.35
2022-10-18T17:55:09.480Z,1012.35
2022-10-18T18:00:09.446Z,1012.34
2022-10-18T18:05:09.370Z,1012.30
2022-10-18T18:10:09.431Z,1012.40
2022-10-18T18:15:09.359Z,1012.39
2022-10-18T18:20:09.293Z,1012.41
2022-10-18T18:25:09.163Z,1012.44
2022-10-18T18:30:09.174Z,1012.42
2022-10-18T18:35:09.037Z,1012.47
2022-10-18T18:40:08.996Z,1012.51
2022-10-18T18:45:08.929Z,1012.48
2022-10-18T18:50:08.890Z,1012.59
2022-10-18T18:55:08.841Z,1012.57
2022-10-18T19:00:08.801Z,1012.54
2022-10-18T19:05:08.794Z,1012.51
2022-10-18T19:10:08.704Z,1012.47
2022-10-18T19:15:08.632Z,1012.48
2022-10-18T19:20:08.594Z,1012.50
2022-10-18T19:25:08.517Z,1012.51
2022-10-18T19:30:08.466Z,1012.63
2022-10-18T19:35:08.406Z,1012.62
2022-10-18T19:40:08.356Z,1012.67
2022-10-18T19:45:08.317Z,1012.73
2022-10-18T19:50:08.341Z,1012.65
2022-10-18T19:55:08.294Z,1012.55
2022-10-18T20:00:09.918Z,1012.50
2022-10-18T20:05:08.070Z,1012.58
2022-10-18T20:10:08.034Z,1012.68
2022-10-18T20:15:07.982Z,1012.68
2022-10-18T20:20:07.927Z,1012.74
2022-10-18T20:25:07.872Z,1012.68
2022-10-18T20:30:10.523Z,1012.72
2022-10-18T20:35:07.751Z,1012.74
2022-10-18T20:40:07.698Z,1012.78
2022-10-18T20:45:07.734Z,1012.84
2022-10-18T20:50:08.615Z,1012.83
2022-10-18T20:55:07.663Z,1012.94
2022-10-18T21:00:07.465Z,1013.00
2022-10-18T21:05:07.403Z,1013.00
2022-10-18T21:10:07.351Z,1012.99
2022-10-18T21:15:07.305Z,1012.88
2022-10-18T21:20:07.244Z,1012.87
2022-10-18T21:25:07.325Z,1012.87
2022-10-18T21:30:07.289Z,1012.89
2022-10-18T21:35:07.202Z,1012.78
2022-10-18T21:40:07.252Z,1012.74
2022-10-18T21:45:07.069Z,1012.73
2022-10-18T21:50:06.918Z,1012.76
2022-10-18T21:55:06.858Z,1012.68
2022-10-18T22:00:06.875Z,1012.66
2022-10-18T22:05:08.436Z,1012.63
2022-10-18T22:10:06.704Z,1012.50
2022-10-18T22:15:06.763Z,1012.49
2022-10-18T22:20:06.694Z,1012.46
2022-10-18T22:25:06.623Z,1012.49
2022-10-18T22:30:06.562Z,1012.42
2022-10-18T22:35:06.446Z,1012.46
2022-10-18T22:40:06.421Z,1012.46
2022-10-18T22:45:06.350Z,1012.46
2022-10-18T22:50:06.284Z,1012.49
2022-10-18T22:55:06.231Z,1012.57
2022-10-18T23:00:06.181Z,1012.59
2022-10-18T23:05:06.109Z,1012.55
2022-10-18T23:10:06.057Z,1012.60
2022-10-18T23:15:06.019Z,1012.58
2022-10-18T23:20:06.009Z,1012.54
2022-10-18T23:25:05.925Z,1012.60
2022-10-18T23:30:05.845Z,1012.69
2022-10-18T23:35:05.906Z,1012.63
2022-10-18T23:40:05.825Z,1012.67
2022-10-18T23:45:05.775Z,1012.63
2022-10-18T23:50:05.690Z,1012.60
2022-10-18T23:55:05.593Z,1012.58
